Terminal Aerodrome Forecast
Issued by NWS

Home | Current Version | Previous Version | Text Only | Print | Product List | Glossary On
Versions: 1 2 3 4 5 6 7 8 9 10 11 12 13 14 15 16 17 18 19 20 21 22
000
FTUS44 KOUN 301736
TAFWWR
TAF
KWWR 301736Z 3018/0118 18020G30KT P6SM SCT030 SCT090
     FM010100 16013KT P6SM BKN080 PROB30 0104/0108 4SM -TSRA
      BKN060CB OVC080
     FM011400 19010KT P6SM BKN080=

USA.gov is the U.S. government's official web portal to all federal, state and local government web resources and services.